NCAR-RAP Real-Time Weather Data

Output produced by METARs form (01 December 2020  17:42 UTC)
found at http://weather.rap.ucar.edu/surface/
 
KBWG 011653Z AUTO 26013KT 10SM BKN033 01/M06 A3018 RMK AO2 SLP222 T00111061
KBWG 011553Z AUTO 28008G15KT 10SM CLR 01/M06 A3018 RMK AO2 SLP223 T00111056
KBWG 011453Z AUTO 27010KT 10SM CLR M01/M06 A3017 RMK AO2 SLP219 T10061061 53018
KBWG 011353Z AUTO 26007KT 10SM CLR M02/M06 A3014 RMK AO2 SLP212 T10171061
KBWG 011253Z AUTO 26004KT 10SM CLR M03/M07 A3013 RMK AO2 SLP206 T10331067
KBWG 011153Z AUTO 27007KT 10SM CLR M03/M07 A3011 RMK AO2 SLP202 70007 T10281067 11006 21028 53015
KBWG 011053Z AUTO 28006KT 10SM CLR M02/M06 A3009 RMK AO2 SLP195 T10221061
KBWG 010953Z AUTO 28008KT 10SM CLR M02/M06 A3007 RMK AO2 SLP189 T10221061
KBWG 010932Z AUTO 29008KT 10SM SCT026 M02/M06 A3007 RMK AO2 T10171056
KBWG 010921Z AUTO 28007KT 10SM BKN025 BKN075 M02/M06 A3007 RMK AO2 T10171056
KBWG 010853Z AUTO 28009KT 10SM SCT025 OVC075 M01/M05 A3007 RMK AO2 SLP186 T10111050 53010
KBWG 010753Z AUTO 28011G18KT 10SM OVC025 M01/M05 A3005 RMK AO2 SLP180 T10061050
KBWG 010728Z AUTO 28009KT 10SM BKN025 OVC060 M01/M04 A3005 RMK AO2 T10061044
KBWG 010705Z AUTO 28007G16KT 10SM FEW021 OVC060 M01/M04 A3005 RMK AO2 T10061044
KBWG 010653Z AUTO 29009KT 10SM BKN023 OVC060 M01/M04 A3004 RMK AO2 SLP177 T10061039
KBWG 010553Z AUTO 28007KT 10SM BKN020 BKN028 OVC034 M01/M04 A3004 RMK AO2 SLP175 T10061039 10011 21006 400501006 51004
KBWG 010501Z AUTO 28008KT 10SM SCT023 BKN029 OVC080 00/M03 A3004 RMK AO2 T00001033
KBWG 010453Z AUTO 29006KT 10SM SCT023 OVC033 00/M03 A3003 RMK AO2 SLP173 T00001033
KBWG 010445Z AUTO 30004KT 10SM SCT021 BKN026 OVC033 00/M03 A3003 RMK AO2 T00001033
KBWG 010353Z AUTO 31011G19KT 10SM SCT029 OVC075 01/M04 A3003 RMK AO2 SLP174 T00061039
KBWG 010253Z AUTO 31007G16KT 10SM SCT024 SCT032 OVC075 01/M03 A3002 RMK AO2 SLP170 T00111033 51008
KBWG 010248Z AUTO 31007G17KT 270V340 10SM SCT024 BKN032 OVC075 01/M03 A3002 RMK AO2